Time;durP1;ratioP1;P1;durP2;ratioP2;P2;SDS_P1;SDS_P2;PMS_P1;PMS_P2;Temp;Humidity;BMP_temperature;BMP_pressure;BME280_temperature;BME280_humidity;BME280_pressure;Samples;Min_cycle;Max_cycle;Signal;HPM_P1;HPM_P2
2022/07/07 00:01:42;;;;;;;6.03;5.63;;;;;;;;;;5112703;28;20202;-70
2022/07/07 00:04:09;;;;;;;6.23;5.93;;;;;;;22.48;83.11;99195.59;5112771;28;20209;-69
2022/07/07 00:06:36;;;;;;;6.43;6.13;;;;;;;22.49;83.26;99192.03;5130448;27;20198;-70
2022/07/07 00:09:04;;;;;;;5.80;5.50;;;;;;;22.51;83.40;99195.34;5132893;27;20675;-69
2022/07/07 00:11:31;;;;;;;5.63;5.43;;;;;;;22.45;82.71;99175.78;5125006;27;20209;-69
2022/07/07 00:13:59;;;;;;;5.70;5.50;;;;;;;22.60;82.48;99189.38;5114963;27;20206;-70
2022/07/07 00:16:25;;;;;;;5.33;5.13;;;;;;;22.64;81.90;99189.94;5120517;27;20202;-70
2022/07/07 00:18:55;;;;;;;5.20;5.00;;;;;;;22.63;81.72;99189.09;5119630;27;20217;-70
2022/07/07 00:21:21;;;;;;;5.47;5.20;;;;;;;22.63;82.06;99196.94;5111821;27;20285;-69
2022/07/07 00:23:48;;;;;;;5.93;5.53;;;;;;;22.64;81.06;99196.00;5112186;28;20203;-70
2022/07/07 00:26:15;;;;;;;5.70;5.50;;;;;;;22.66;81.15;99195.88;5112390;27;20191;-70
2022/07/07 00:28:42;;;;;;;4.93;4.73;;;;;;;22.57;81.12;99189.63;5124933;27;20186;-70
2022/07/07 00:31:09;;;;;;;5.90;5.50;;;;;;;22.37;81.70;99169.53;5113015;27;20195;-70
2022/07/07 00:33:36;;;;;;;5.53;5.33;;;;;;;22.48;81.63;99191.22;5118598;27;20577;-69
2022/07/07 00:36:07;;;;;;;5.60;5.30;;;;;;;22.40;82.14;99192.78;5111846;28;20198;-70
2022/07/07 00:38:34;;;;;;;4.97;4.77;;;;;;;22.26;81.53;99164.38;5126499;27;20256;-70
2022/07/07 00:41:02;;;;;;;5.80;5.50;;;;;;;22.26;82.02;99180.03;5124465;27;20684;-69
2022/07/07 00:43:35;;;;;;;5.83;5.53;;;;;;;22.28;81.80;99183.34;5118245;27;20186;-70
2022/07/07 00:46:03;;;;;;;5.07;4.87;;;;;;;22.12;81.68;99162.03;5111887;28;20227;-70
2022/07/07 00:48:32;;;;;;;5.27;4.97;;;;;;;22.18;81.48;99175.44;5124857;27;20198;-70
2022/07/07 00:50:59;;;;;;;5.10;4.90;;;;;;;22.13;82.33;99174.97;5131311;27;20194;-70
2022/07/07 00:53:28;;;;;;;5.40;5.20;;;;;;;22.16;82.17;99174.72;5128927;27;20221;-70
2022/07/07 00:55:54;;;;;;;5.10;4.90;;;;;;;22.12;82.31;99172.50;5114771;27;20199;-70
2022/07/07 00:58:21;;;;;;;6.73;5.30;;;;;;;22.06;82.61;99176.44;5112181;28;20681;-70
2022/07/07 01:00:49;;;;;;;5.27;5.07;;;;;;;22.09;82.94;99180.56;5114347;27;20198;-70
2022/07/07 01:03:16;;;;;;;6.07;5.77;;;;;;;22.09;83.00;99172.75;5118901;27;20206;-70
2022/07/07 01:05:47;;;;;;;5.93;5.73;;;;;;;22.04;84.07;99172.25;5132172;27;20197;-70
2022/07/07 01:08:15;;;;;;;6.23;5.93;;;;;;;21.87;85.57;99165.78;5131512;27;20206;-70
2022/07/07 01:10:44;;;;;;;5.77;5.57;;;;;;;21.89;86.38;99177.78;5124282;27;20199;-70
2022/07/07 01:13:12;;;;;;;6.10;5.83;;;;;;;21.83;87.11;99178.25;5116327;27;20196;-70
2022/07/07 01:15:39;;;;;;;6.63;6.20;;;;;;;21.74;87.71;99172.94;5113003;27;20205;-70
2022/07/07 01:18:07;;;;;;;6.20;5.90;;;;;;;21.72;88.59;99165.22;5112798;27;20202;-70
2022/07/07 01:20:35;;;;;;;6.00;5.70;;;;;;;21.70;88.83;99167.13;5113176;28;20218;-70
2022/07/07 01:23:04;;;;;;;6.10;5.90;;;;;;;21.60;89.34;99171.41;5129683;27;20198;-70
2022/07/07 01:25:31;;;;;;;6.73;6.33;;;;;;;21.64;89.54;99174.59;5130762;27;20207;-69
2022/07/07 01:27:58;;;;;;;6.93;6.63;;;;;;;21.62;89.60;99184.31;5132045;27;20686;-69
2022/07/07 01:30:25;;;;;;;6.43;6.13;;;;;;;21.57;90.05;99182.09;5121540;27;20582;-70
2022/07/07 01:32:52;;;;;;;6.37;6.10;;;;;;;21.48;90.96;99182.81;5111249;28;20197;-70
2022/07/07 01:35:19;;;;;;;6.37;6.07;;;;;;;21.44;91.75;99186.59;5111107;28;20206;-69
2022/07/07 01:37:46;;;;;;;6.70;6.40;;;;;;;21.36;92.11;99162.88;5111728;28;20229;-69
2022/07/07 01:40:14;;;;;;;7.53;7.23;;;;;;;21.44;92.29;99181.38;5113887;28;20701;-70
2022/07/07 01:42:41;;;;;;;6.40;6.20;;;;;;;21.36;93.13;99178.53;5111219;28;20197;-69
2022/07/07 01:45:09;;;;;;;7.00;6.70;;;;;;;21.35;92.99;99174.28;5111042;28;20198;-69
2022/07/07 01:47:36;;;;;;;6.40;6.10;;;;;;;21.37;92.83;99174.97;5125126;28;20233;-70
2022/07/07 01:50:04;;;;;;;7.03;6.70;;;;;;;21.38;92.24;99177.47;5117349;28;20197;-70
2022/07/07 01:52:31;;;;;;;6.53;6.23;;;;;;;21.31;92.50;99159.81;5111249;28;20205;-70
2022/07/07 01:54:58;;;;;;;9.90;6.80;;;;;;;21.43;91.89;99177.09;5113832;28;20556;-70
2022/07/07 01:57:26;;;;;;;6.53;6.13;;;;;;;21.42;92.24;99172.84;5131913;28;20198;-70
2022/07/07 01:59:53;;;;;;;6.17;5.90;;;;;;;21.45;92.33;99177.84;5123684;27;20207;-70
2022/07/07 02:02:20;;;;;;;5.87;5.47;;;;;;;21.39;92.47;99173.91;5130706;28;20193;-70
2022/07/07 02:04:47;;;;;;;6.13;5.93;;;;;;;21.37;92.60;99174.97;5131493;28;20197;-70
2022/07/07 02:07:14;;;;;;;5.57;5.37;;;;;;;21.39;92.25;99171.28;5117310;27;20198;-70
2022/07/07 02:09:40;;;;;;;6.57;6.33;;;;;;;21.38;92.15;99171.44;5118765;27;20201;-70
2022/07/07 02:12:08;;;;;;;5.90;5.60;;;;;;;21.32;92.07;99171.91;5120883;28;20654;-70
2022/07/07 02:14:37;;;;;;;6.20;6.00;;;;;;;21.29;92.10;99172.16;5110840;28;20205;-70
2022/07/07 02:17:04;;;;;;;6.20;5.90;;;;;;;21.23;92.53;99172.59;5127177;28;20634;-70
2022/07/07 02:19:31;;;;;;;5.80;5.50;;;;;;;21.25;92.52;99173.31;5114821;28;20221;-70
2022/07/07 02:21:58;;;;;;;6.10;5.67;;;;;;;21.25;92.59;99176.78;5129487;28;20670;-70
2022/07/07 02:24:25;;;;;;;5.80;5.60;;;;;;;21.24;92.73;99184.69;5129719;27;20573;-70
2022/07/07 02:26:52;;;;;;;5.83;5.63;;;;;;;21.25;92.97;99183.75;5124799;28;20205;-69
2022/07/07 02:29:18;;;;;;;5.63;5.43;;;;;;;21.24;92.15;99180.31;5130051;28;20202;-69
2022/07/07 02:31:47;;;;;;;5.53;5.23;;;;;;;21.29;92.12;99182.59;5114860;28;20208;-69
2022/07/07 02:34:13;;;;;;;5.97;5.47;;;;;;;21.36;92.00;99188.97;5123178;28;20209;-69
2022/07/07 02:36:40;;;;;;;5.63;5.43;;;;;;;21.30;91.86;99179.00;5111103;28;20608;-69
2022/07/07 02:39:07;;;;;;;5.87;5.60;;;;;;;21.42;91.63;99197.13;5128051;28;20221;-70
2022/07/07 02:41:34;;;;;;;5.73;5.53;;;;;;;21.41;91.60;99192.06;5129895;28;20206;-69
2022/07/07 02:44:01;;;;;;;5.07;4.87;;;;;;;21.44;91.24;99197.03;5131883;27;20194;-70
2022/07/07 02:46:29;;;;;;;5.50;5.10;;;;;;;21.48;91.25;99200.22;5119278;27;20226;-69
2022/07/07 02:48:58;;;;;;;4.87;4.53;;;;;;;21.55;90.57;99199.59;5113541;27;20754;-70
2022/07/07 02:51:25;;;;;;;5.23;5.03;;;;;;;21.62;90.70;99205.19;5131579;27;20584;-69
2022/07/07 02:53:51;;;;;;;5.23;4.93;;;;;;;21.43;91.42;99179.72;5131302;27;20201;-70
2022/07/07 02:56:18;;;;;;;5.63;5.43;;;;;;;21.54;91.75;99200.59;5132939;27;20298;-70
2022/07/07 02:58:45;;;;;;;5.33;5.13;;;;;;;21.54;91.97;99202.34;5132789;27;20189;-70
2022/07/07 03:01:12;;;;;;;5.33;5.13;;;;;;;21.56;91.91;99198.66;5126047;27;20205;-70
2022/07/07 03:03:38;;;;;;;5.10;4.90;;;;;;;21.57;91.01;99195.13;5127251;27;20201;-70
2022/07/07 03:06:07;;;;;;;5.27;4.97;;;;;;;21.59;91.42;99206.25;5113852;27;20203;-70
2022/07/07 03:08:34;;;;;;;4.80;4.60;;;;;;;21.57;91.66;99202.94;5119577;27;20203;-69
2022/07/07 03:11:00;;;;;;;6.10;4.87;;;;;;;21.44;92.33;99202.25;5127171;27;20205;-70
2022/07/07 03:13:28;;;;;;;4.70;4.50;;;;;;;21.50;92.39;99199.16;5134324;27;20204;-70
2022/07/07 03:15:55;;;;;;;4.50;4.30;;;;;;;21.46;92.40;99200.34;5131735;27;20247;-70
2022/07/07 03:18:22;;;;;;;5.23;5.03;;;;;;;21.42;92.32;99204.16;5113642;28;20198;-70
2022/07/07 03:20:49;;;;;;;4.90;4.70;;;;;;;21.42;92.43;99201.53;5115215;27;20218;-70
2022/07/07 03:23:17;;;;;;;5.50;5.13;;;;;;;21.38;91.62;99192.28;5118753;27;20212;-69
2022/07/07 03:25:44;;;;;;;5.60;5.20;;;;;;;21.38;91.32;99192.28;5116652;27;20204;-69
2022/07/07 03:28:10;;;;;;;5.20;5.00;;;;;;;21.35;91.07;99197.75;5119118;27;20198;-69
2022/07/07 03:30:37;;;;;;;5.43;5.23;;;;;;;21.36;90.66;99181.13;5132660;27;20196;-69
2022/07/07 03:33:04;;;;;;;5.00;4.80;;;;;;;21.41;89.92;99184.22;5133579;27;20200;-69
2022/07/07 03:35:31;;;;;;;5.27;4.87;;;;;;;21.43;89.45;99182.31;5123286;27;20202;-70
2022/07/07 03:37:58;;;;;;;5.77;5.27;;;;;;;21.46;89.35;99193.34;5116125;27;20198;-70
2022/07/07 03:40:26;;;;;;;5.20;5.00;;;;;;;21.53;88.95;99191.09;5119748;27;20220;-70
2022/07/07 03:42:53;;;;;;;8.10;5.03;;;;;;;21.57;89.11;99192.50;5133658;27;20194;-70
2022/07/07 03:45:20;;;;;;;5.30;5.10;;;;;;;21.61;88.60;99193.94;5115846;27;20198;-70
2022/07/07 03:47:46;;;;;;;4.90;4.70;;;;;;;21.64;88.26;99183.25;5121650;27;20689;-70
2022/07/07 03:50:13;;;;;;;5.33;4.93;;;;;;;21.82;87.67;99194.00;5116313;27;20204;-70
2022/07/07 03:52:40;;;;;;;5.37;4.97;;;;;;;21.90;87.25;99200.31;5112884;28;20570;-70
2022/07/07 03:55:09;;;;;;;7.13;4.70;;;;;;;22.00;86.82;99196.97;5131953;27;20288;-70
2022/07/07 03:57:38;;;;;;;5.50;5.30;;;;;;;22.01;86.03;99167.28;5114705;27;20198;-70
2022/07/07 04:00:06;;;;;;;5.97;5.57;;;;;;;22.10;85.74;99177.00;5116451;27;20280;-70
2022/07/07 04:02:33;;;;;;;5.03;4.83;;;;;;;22.28;85.25;99199.00;5121276;27;20194;-70
2022/07/07 04:05:00;;;;;;;4.70;4.50;;;;;;;22.37;84.97;99198.25;5125995;27;20201;-70
2022/07/07 04:07:27;;;;;;;5.33;5.03;;;;;;;22.45;85.24;99201.09;5120639;27;20202;-70
2022/07/07 04:09:53;;;;;;;5.87;5.07;;;;;;;22.56;84.94;99205.41;5124633;27;20645;-70
2022/07/07 04:12:20;;;;;;;5.37;4.90;;;;;;;22.58;84.98;99191.28;5128558;27;20202;-70
2022/07/07 04:14:48;;;;;;;5.30;4.90;;;;;;;22.74;84.36;99209.16;5113590;27;20194;-70
2022/07/07 04:17:16;;;;;;;4.97;4.60;;;;;;;22.81;85.01;99213.72;5113219;28;20198;-70
2022/07/07 04:19:42;;;;;;;4.63;4.33;;;;;;;22.93;83.99;99214.50;5112467;27;20218;-70
2022/07/07 04:22:09;;;;;;;5.77;5.37;;;;;;;23.09;83.12;99212.25;5121670;27;20197;-70
2022/07/07 04:24:36;;;;;;;5.97;5.57;;;;;;;23.17;82.93;99214.22;5114010;27;20194;-70
2022/07/07 04:27:04;;;;;;;4.90;4.20;;;;;;;23.30;82.02;99214.81;5129011;27;20201;-70
2022/07/07 04:29:31;;;;;;;4.80;4.60;;;;;;;23.35;82.05;99210.03;5132652;27;20198;-70
2022/07/07 04:31:59;;;;;;;4.70;4.50;;;;;;;23.53;82.00;99216.34;5132885;27;20565;-70
2022/07/07 04:34:26;;;;;;;4.27;4.13;;;;;;;23.63;80.39;99217.19;5132725;27;20224;-70
2022/07/07 04:36:53;;;;;;;3.90;3.80;;;;;;;23.69;80.52;99216.66;5132301;27;20205;-69
2022/07/07 04:39:20;;;;;;;4.10;3.90;;;;;;;23.80;81.88;99223.59;5123233;27;20300;-66
2022/07/07 04:41:47;;;;;;;4.07;3.87;;;;;;;23.90;81.17;99227.06;5124847;27;20194;-67
2022/07/07 04:44:14;;;;;;;4.40;4.23;;;;;;;24.03;81.09;99225.88;5120800;27;20191;-67
2022/07/07 04:46:41;;;;;;;4.40;4.20;;;;;;;24.20;79.28;99234.06;5118440;27;20605;-67
2022/07/07 04:49:09;;;;;;;3.50;3.30;;;;;;;24.30;79.78;99224.38;5128903;27;20209;-67
2022/07/07 04:51:36;;;;;;;3.77;3.47;;;;;;;24.39;77.15;99218.34;5120167;27;20194;-67
2022/07/07 04:54:02;;;;;;;3.47;3.37;;;;;;;24.43;78.23;99225.78;5117137;27;20199;-67
2022/07/07 04:56:29;;;;;;;4.00;3.80;;;;;;;24.58;77.94;99226.19;5119948;27;20201;-67
2022/07/07 04:58:56;;;;;;;3.50;3.40;;;;;;;24.63;76.52;99213.50;5126987;27;20729;-67
2022/07/07 05:01:23;;;;;;;4.00;3.60;;;;;;;24.65;76.44;99216.81;5129488;27;20210;-67
2022/07/07 05:03:50;;;;;;;3.80;3.60;;;;;;;24.78;75.24;99206.03;5123299;27;20202;-67
2022/07/07 05:06:18;;;;;;;3.80;3.60;;;;;;;25.01;75.77;99218.69;5116135;27;20304;-67
2022/07/07 05:08:45;;;;;;;3.97;3.77;;;;;;;25.22;75.52;99210.66;5123417;27;20203;-66
2022/07/07 05:11:12;;;;;;;17.47;4.33;;;;;;;25.32;73.16;99223.72;5124730;27;21689;-66
2022/07/07 05:13:38;;;;;;;9.13;3.10;;;;;;;25.48;74.62;99216.91;5126143;27;20207;-66
2022/07/07 05:16:06;;;;;;;3.37;3.27;;;;;;;25.74;72.30;99211.81;5122945;27;20202;-69
2022/07/07 05:18:33;;;;;;;3.43;3.10;;;;;;;25.91;71.93;99218.91;5125437;27;20198;-70
2022/07/07 05:21:00;;;;;;;3.17;2.73;;;;;;;26.14;68.49;99218.50;5118053;27;20226;-71
2022/07/07 05:23:29;;;;;;;3.10;3.00;;;;;;;26.14;70.44;99214.03;5129145;27;20750;-70
2022/07/07 05:25:55;;;;;;;2.87;2.70;;;;;;;26.33;69.29;99223.63;5113390;27;20210;-70
2022/07/07 05:28:22;;;;;;;3.00;2.90;;;;;;;26.50;68.30;99225.41;5111987;28;20205;-71
2022/07/07 05:30:49;;;;;;;2.53;2.43;;;;;;;26.57;67.73;99224.69;5126979;27;20209;-70
2022/07/07 05:33:16;;;;;;;3.10;2.90;;;;;;;26.65;68.48;99229.19;5120605;27;20619;-70
2022/07/07 05:35:43;;;;;;;2.93;2.83;;;;;;;26.91;68.38;99222.19;5111066;27;20213;-69
2022/07/07 05:38:10;;;;;;;3.40;3.20;;;;;;;27.11;67.52;99226.25;5111784;28;20194;-70
2022/07/07 05:40:38;;;;;;;3.07;2.97;;;;;;;27.19;66.27;99227.28;5117669;28;20727;-70
2022/07/07 05:43:05;;;;;;;2.73;2.63;;;;;;;27.34;65.15;99231.81;5129083;28;20198;-69
2022/07/07 05:45:32;;;;;;;2.90;2.70;;;;;;;27.43;65.76;99224.78;5123039;28;20213;-67
2022/07/07 05:47:59;;;;;;;2.70;2.60;;;;;;;27.50;65.53;99233.72;5128602;27;20553;-67
2022/07/07 05:50:26;;;;;;;2.70;2.50;;;;;;;27.74;64.28;99236.47;5123267;27;20277;-67
2022/07/07 05:52:52;;;;;;;2.50;2.40;;;;;;;27.91;65.39;99240.00;5120890;27;20206;-67
2022/07/07 05:55:19;;;;;;;2.03;1.93;;;;;;;28.01;64.07;99236.22;5117116;27;20297;-67
2022/07/07 05:57:47;;;;;;;2.27;2.17;;;;;;;28.13;61.05;99240.25;5117911;27;20202;-65
2022/07/07 06:00:15;;;;;;;2.27;2.17;;;;;;;28.20;61.05;99244.88;5123343;27;20601;-67
2022/07/07 06:02:42;;;;;;;3.73;2.67;;;;;;;28.17;59.32;99245.19;5120962;28;20228;-67
2022/07/07 06:05:09;;;;;;;2.87;2.70;;;;;;;28.31;60.30;99247.19;5118773;28;20222;-67
2022/07/07 06:07:36;;;;;;;2.13;2.00;;;;;;;28.54;59.12;99246.38;5117765;28;20207;-67
2022/07/07 06:10:03;;;;;;;1.92;1.90;;;;;;;28.52;57.77;99250.19;5127944;28;20756;-70
2022/07/07 06:12:30;;;;;;;2.30;2.20;;;;;;;28.54;58.34;99254.31;5122365;28;20622;-64
2022/07/07 06:14:58;;;;;;;2.40;2.30;;;;;;;28.53;58.14;99251.84;5124707;28;20198;-68
2022/07/07 06:17:25;;;;;;;2.30;2.28;;;;;;;28.59;57.57;99251.19;5120215;27;20203;-70
2022/07/07 06:19:52;;;;;;;2.30;2.20;;;;;;;28.81;59.55;99255.84;5122469;27;20628;-69
2022/07/07 06:22:18;;;;;;;1.83;1.80;;;;;;;28.86;58.11;99253.50;5129385;27;20203;-67
2022/07/07 06:24:45;;;;;;;2.40;2.30;;;;;;;28.90;58.71;99260.09;5126897;27;20202;-67
2022/07/07 06:27:12;;;;;;;3.22;2.90;;;;;;;28.93;58.66;99249.22;5126621;27;20198;-67
2022/07/07 06:29:39;;;;;;;2.60;1.90;;;;;;;29.19;58.49;99239.28;5124103;27;20726;-68
2022/07/07 06:32:08;;;;;;;2.03;1.92;;;;;;;29.44;57.02;99252.44;5128580;27;20206;-68
2022/07/07 06:34:35;;;;;;;3.33;2.13;;;;;;;29.44;54.83;99241.88;5125975;27;20213;-69
2022/07/07 06:37:02;;;;;;;3.67;1.95;;;;;;;29.40;55.30;99245.88;5119718;27;20210;-68
2022/07/07 06:39:29;;;;;;;2.43;2.33;;;;;;;29.44;55.95;99249.78;5129042;27;20202;-68
2022/07/07 06:41:56;;;;;;;2.13;2.03;;;;;;;29.25;56.07;99243.09;5118532;27;20225;-69
2022/07/07 06:44:22;;;;;;;2.08;2.08;;;;;;;29.28;55.06;99242.75;5116899;27;20206;-68
2022/07/07 06:46:49;;;;;;;2.27;2.17;;;;;;;29.33;55.83;99242.25;5117071;27;20230;-68
2022/07/07 06:49:17;;;;;;;2.03;1.92;;;;;;;29.28;55.47;99236.63;5128915;27;20209;-68
2022/07/07 06:51:44;;;;;;;1.67;1.57;;;;;;;29.35;54.38;99248.19;5128495;27;20198;-68
2022/07/07 06:54:11;;;;;;;2.30;2.20;;;;;;;29.36;54.16;99249.84;5121841;27;20203;-68
2022/07/07 06:56:38;;;;;;;2.03;1.98;;;;;;;29.46;52.93;99247.84;5125230;27;20228;-68
2022/07/07 06:59:05;;;;;;;2.78;1.80;;;;;;;29.48;55.48;99251.13;5121568;27;20209;-68
2022/07/07 07:01:31;;;;;;;2.45;2.25;;;;;;;29.74;55.11;99243.75;5125622;27;20602;-67
2022/07/07 07:03:58;;;;;;;1.80;1.73;;;;;;;29.87;52.99;99240.59;5125021;27;20193;-68
2022/07/07 07:06:28;;;;;;;1.77;1.70;;;;;;;30.00;51.41;99243.50;5127218;27;20646;-70
2022/07/07 07:08:55;;;;;;;1.92;1.83;;;;;;;29.78;51.88;99245.06;5124000;27;20200;-69
2022/07/07 07:11:22;;;;;;;1.90;1.90;;;;;;;29.79;52.76;99238.75;5133325;27;20202;-68
2022/07/07 07:13:49;;;;;;;2.58;2.30;;;;;;;29.83;50.99;99232.16;5133561;27;20341;-68
2022/07/07 07:16:16;;;;;;;1.67;1.60;;;;;;;29.90;51.31;99240.22;5133900;27;20233;-69
2022/07/07 07:18:43;;;;;;;1.80;1.80;;;;;;;29.84;51.24;99239.13;5133029;27;20205;-69
2022/07/07 07:21:10;;;;;;;1.80;1.60;;;;;;;29.86;51.49;99242.41;5133147;27;20222;-68
2022/07/07 07:23:38;;;;;;;2.10;2.00;;;;;;;30.05;51.80;99239.31;5132901;27;20297;-68
2022/07/07 07:26:06;;;;;;;1.73;1.63;;;;;;;30.19;50.94;99230.66;5133010;27;20653;-68
2022/07/07 07:28:33;;;;;;;1.75;1.75;;;;;;;30.46;49.37;99239.94;5124054;27;20528;-69
2022/07/07 07:31:00;;;;;;;1.88;1.88;;;;;;;30.77;50.20;99250.41;5124642;27;20660;-68
2022/07/07 07:33:28;;;;;;;1.98;1.88;;;;;;;31.01;48.88;99252.06;5119849;27;20681;-67
2022/07/07 07:35:55;;;;;;;2.13;1.75;;;;;;;31.12;49.08;99255.09;5128482;27;20671;-69
2022/07/07 07:38:22;;;;;;;2.38;2.13;;;;;;;31.35;50.27;99251.53;5125384;27;20198;-69
2022/07/07 07:40:50;;;;;;;2.30;2.10;;;;;;;31.54;47.93;99251.84;5129151;27;20217;-70
2022/07/07 07:43:17;;;;;;;1.88;1.77;;;;;;;31.63;48.78;99256.03;5123065;27;20590;-70
2022/07/07 07:45:44;;;;;;;2.05;1.95;;;;;;;31.46;45.82;99251.91;5121905;27;20226;-70
2022/07/07 07:48:11;;;;;;;5.25;2.10;;;;;;;31.61;50.38;99251.94;5124750;27;20203;-69
2022/07/07 07:50:39;;;;;;;1.83;1.83;;;;;;;31.48;49.24;99244.59;5124419;27;20657;-68
2022/07/07 07:53:07;;;;;;;2.08;1.98;;;;;;;31.78;49.09;99258.69;5118919;27;20234;-70
2022/07/07 07:55:35;;;;;;;2.10;2.00;;;;;;;31.81;48.87;99246.88;5120847;27;20285;-70
2022/07/07 07:58:03;;;;;;;2.15;1.70;;;;;;;31.99;46.00;99244.66;5125135;27;20670;-70
2022/07/07 08:00:30;;;;;;;2.13;2.03;;;;;;;32.22;46.25;99246.16;5127164;27;20205;-70
2022/07/07 08:02:57;;;;;;;2.10;2.00;;;;;;;32.24;45.42;99243.34;5129112;27;20206;-69
2022/07/07 08:05:25;;;;;;;5.97;2.47;;;;;;;32.17;47.62;99248.56;5120670;27;20202;-69
2022/07/07 08:07:52;;;;;;;2.13;2.03;;;;;;;32.35;45.48;99255.25;5128423;27;20251;-70
2022/07/07 08:10:19;;;;;;;2.22;2.05;;;;;;;32.63;43.59;99243.75;5129464;27;20202;-70
2022/07/07 08:12:47;;;;;;;2.38;1.98;;;;;;;32.54;46.86;99249.31;5130472;27;20229;-70
2022/07/07 08:15:16;;;;;;;1.80;1.70;;;;;;;32.65;44.42;99251.50;5125678;27;20241;-70
2022/07/07 08:17:44;;;;;;;2.10;2.00;;;;;;;32.38;43.87;99254.88;5129047;27;20285;-69
2022/07/07 08:20:11;;;;;;;3.35;2.20;;;;;;;32.17;46.05;99242.44;5128716;27;20616;-71
2022/07/07 08:22:39;;;;;;;1.80;1.80;;;;;;;32.30;45.05;99247.06;5116305;27;20218;-70
2022/07/07 08:25:06;;;;;;;2.20;2.10;;;;;;;32.45;45.40;99239.84;5128978;27;20626;-70
2022/07/07 08:27:33;;;;;;;2.20;2.10;;;;;;;32.50;45.26;99248.09;5117435;27;20199;-70
2022/07/07 08:30:01;;;;;;;2.30;2.20;;;;;;;32.40;44.31;99245.75;5116870;27;20205;-70
2022/07/07 08:32:29;;;;;;;1.83;1.83;;;;;;;32.33;43.66;99242.19;5120217;27;20217;-70
2022/07/07 08:34:56;;;;;;;2.40;2.30;;;;;;;32.45;43.37;99248.63;5129985;27;20198;-70
2022/07/07 08:37:22;;;;;;;2.40;2.30;;;;;;;32.45;45.44;99242.50;5118887;27;20193;-70
2022/07/07 08:39:49;;;;;;;2.53;2.42;;;;;;;32.67;44.42;99244.16;5120182;27;20582;-70
2022/07/07 08:42:17;;;;;;;3.05;2.85;;;;;;;33.01;45.21;99241.59;5114012;28;20218;-71
2022/07/07 08:44:44;;;;;;;2.80;2.60;;;;;;;33.18;44.22;99232.31;5115215;27;24268;-69
2022/07/07 08:47:11;;;;;;;2.28;2.10;;;;;;;33.22;42.26;99244.22;5116012;27;20609;-70
2022/07/07 08:49:39;;;;;;;2.67;2.47;;;;;;;33.31;42.48;99236.09;5112236;27;20210;-71
2022/07/07 08:52:07;;;;;;;2.17;2.08;;;;;;;33.40;40.98;99240.22;5122454;27;20635;-70
2022/07/07 08:54:34;;;;;;;2.65;2.55;;;;;;;33.52;42.51;99234.16;5123632;27;20209;-70
2022/07/07 08:57:01;;;;;;;2.38;2.20;;;;;;;33.49;41.54;99228.41;5131952;27;20205;-69
2022/07/07 08:59:28;;;;;;;2.50;2.40;;;;;;;33.47;40.85;99244.59;5126660;27;20250;-70
2022/07/07 09:01:56;;;;;;;2.38;2.28;;;;;;;33.59;42.30;99234.19;5131748;27;20729;-70
2022/07/07 09:04:23;;;;;;;2.35;2.15;;;;;;;33.75;41.56;99231.22;5127473;27;20262;-70
2022/07/07 09:06:56;;;;;;;2.55;2.10;;;;;;;33.52;39.72;99238.66;5114909;27;20199;-70
2022/07/07 09:09:39;;;;;;;2.30;2.20;;;;;;;33.56;41.99;99231.94;5115524;27;20198;-70
2022/07/07 09:12:07;;;;;;;5.25;2.40;;;;;;;33.45;41.99;99243.13;5117277;27;20214;-71
2022/07/07 09:14:39;;;;;;;2.45;2.35;;;;;;;33.61;41.89;99245.47;5115618;27;20202;-70
2022/07/07 09:17:16;;;;;;;2.13;1.92;;;;;;;33.82;40.65;99229.41;5116834;27;20202;-70
2022/07/07 09:19:44;;;;;;;2.58;2.20;;;;;;;33.80;41.29;99231.44;5121873;27;20204;-70
2022/07/07 09:22:13;;;;;;;2.20;2.10;;;;;;;33.82;41.60;99205.50;5119340;27;20222;-70
2022/07/07 09:24:56;;;;;;;2.85;2.58;;;;;;;34.02;43.35;99224.16;5128801;27;20205;-72
2022/07/07 09:27:23;;;;;;;1.88;1.73;;;;;;;34.00;42.90;99227.00;5123102;27;20204;-70
2022/07/07 09:29:50;;;;;;;2.28;2.17;;;;;;;33.93;40.33;99220.84;5125041;27;20627;-70
2022/07/07 09:32:17;;;;;;;2.38;2.28;;;;;;;33.97;42.46;99226.59;5123242;27;20205;-70
2022/07/07 09:34:44;;;;;;;2.78;2.67;;;;;;;33.86;40.71;99220.03;5119525;27;20208;-70
2022/07/07 09:39:58;;;;;;;2.35;2.25;;;;;;;33.52;40.35;99209.41;5126475;28;20311;-70
2022/07/07 09:42:26;;;;;;;2.25;2.15;;;;;;;33.49;39.90;99213.28;5113616;28;20708;-69
2022/07/07 09:44:55;;;;;;;2.25;2.15;;;;;;;33.65;40.71;99193.56;5128767;28;20209;-70
2022/07/07 09:47:23;;;;;;;2.60;2.50;;;;;;;33.79;40.18;99203.22;5129071;27;20222;-66
2022/07/07 09:50:01;;;;;;;2.47;2.38;;;;;;;33.97;39.16;99200.81;5127445;27;20205;-69
2022/07/07 09:52:29;;;;;;;2.20;2.10;;;;;;;34.01;39.32;99202.06;5129648;27;20189;-70
2022/07/07 09:54:58;;;;;;;2.78;2.60;;;;;;;34.08;38.73;99197.56;5128258;27;20199;-69
2022/07/07 09:57:26;;;;;;;2.90;2.80;;;;;;;34.05;38.83;99203.31;5129846;27;20626;-68
2022/07/07 09:59:53;;;;;;;2.58;2.40;;;;;;;34.31;39.01;99199.06;5130003;27;20205;-70
2022/07/07 10:02:22;;;;;;;2.95;2.35;;;;;;;34.34;37.70;99196.00;5128310;27;20689;-70
2022/07/07 10:04:51;;;;;;;2.53;2.42;;;;;;;34.29;37.15;99197.44;5128496;27;20202;-69
2022/07/07 10:07:24;;;;;;;1.98;1.98;;;;;;;34.22;38.18;99193.94;5128123;27;20201;-70
2022/07/07 10:09:53;;;;;;;2.42;2.33;;;;;;;34.34;38.74;99204.00;5123791;27;20198;-69
2022/07/07 10:12:25;;;;;;;2.72;2.63;;;;;;;34.25;38.33;99188.19;5130199;27;20194;-68
2022/07/07 10:14:55;;;;;;;2.45;2.35;;;;;;;34.47;39.13;99196.03;5127497;27;20570;-69
2022/07/07 10:17:23;;;;;;;2.45;2.35;;;;;;;34.50;38.33;99191.09;5131684;27;20289;-70
2022/07/07 10:19:50;;;;;;;2.67;2.58;;;;;;;34.78;40.33;99193.56;5133392;27;20703;-70
2022/07/07 10:22:18;;;;;;;3.85;2.47;;;;;;;34.73;40.42;99196.06;5130437;27;20365;-70
2022/07/07 10:24:46;;;;;;;2.28;2.17;;;;;;;34.67;37.48;99196.88;5129195;27;20194;-70
2022/07/07 10:27:16;;;;;;;2.30;2.20;;;;;;;34.75;38.33;99192.16;5125862;27;20204;-72
2022/07/07 10:29:46;;;;;;;2.50;2.40;;;;;;;34.94;38.17;99182.47;5123191;27;20213;-72
2022/07/07 10:32:14;;;;;;;2.50;2.30;;;;;;;34.96;37.94;99180.41;5120207;27;20199;-72
2022/07/07 10:34:50;;;;;;;2.45;2.20;;;;;;;34.69;37.58;99169.00;5125717;27;20213;-72
2022/07/07 10:37:17;;;;;;;2.40;2.30;;;;;;;34.74;38.76;99174.53;5118643;27;20205;-72
2022/07/07 10:39:46;;;;;;;3.53;2.50;;;;;;;34.69;36.79;99184.16;5122958;27;20560;-70
2022/07/07 10:42:58;;;;;;;2.47;2.38;;;;;;;34.57;35.66;99181.28;5117957;27;20218;-70
2022/07/07 10:45:28;;;;;;;2.47;2.38;;;;;;;34.33;37.21;99191.69;5118054;27;20238;-69
2022/07/07 10:47:55;;;;;;;2.65;2.55;;;;;;;34.31;39.04;99181.28;5121588;27;20260;-69
2022/07/07 10:50:25;;;;;;;2.35;2.15;;;;;;;34.09;37.77;99179.78;5123131;27;20688;-70
2022/07/07 10:52:52;;;;;;;2.40;2.30;;;;;;;34.10;37.81;99174.25;5122187;27;20260;-70
2022/07/07 10:55:19;;;;;;;2.55;2.45;;;;;;;33.84;37.62;99182.16;5117272;27;20207;-70
2022/07/07 10:57:48;;;;;;;2.08;2.08;;;;;;;33.51;38.55;99167.88;5122351;27;20627;-70
2022/07/07 11:00:18;;;;;;;2.60;2.40;;;;;;;33.42;38.37;99174.41;5127571;27;20448;-70
2022/07/07 11:02:49;;;;;;;2.80;2.60;;;;;;;33.09;40.11;99175.06;5131662;27;20951;-67
2022/07/07 11:05:28;;;;;;;2.75;2.65;;;;;;;33.18;40.21;99176.53;5130231;27;20524;-67
2022/07/07 11:08:10;;;;;;;2.70;2.60;;;;;;;33.12;39.01;99172.00;5130345;27;20202;-67
2022/07/07 11:10:59;;;;;;;2.25;2.15;;;;;;;33.07;39.66;99177.06;5130657;27;20233;-67
2022/07/07 11:13:34;;;;;;;2.38;2.17;;;;;;;33.06;40.29;99172.75;5127829;27;20197;-67
2022/07/07 11:16:13;;;;;;;2.83;2.65;;;;;;;32.93;40.88;99174.50;5126514;27;20687;-67
2022/07/07 11:18:43;;;;;;;2.97;2.88;;;;;;;32.71;40.62;99152.50;5116027;27;20210;-67
2022/07/07 11:21:10;;;;;;;2.65;2.55;;;;;;;32.59;40.09;99162.03;5119790;27;20194;-67
2022/07/07 11:23:47;;;;;;;2.78;2.58;;;;;;;32.67;40.97;99175.16;5129519;27;20214;-67
2022/07/07 11:26:17;;;;;;;2.33;2.22;;;;;;;32.74;40.53;99162.75;5126841;27;20513;-73
2022/07/07 11:28:44;;;;;;;2.78;2.58;;;;;;;33.03;40.48;99164.34;5130188;27;20892;-73
2022/07/07 11:31:12;;;;;;;8.10;2.63;;;;;;;33.25;41.17;99153.47;5130941;27;20208;-73
2022/07/07 11:33:39;;;;;;;2.13;2.05;;;;;;;33.40;40.30;99149.88;5127337;27;20202;-73
2022/07/07 11:36:16;;;;;;;2.35;2.25;;;;;;;33.48;38.36;99157.66;5127969;27;20630;-72
2022/07/07 11:38:46;;;;;;;2.20;2.10;;;;;;;33.59;39.55;99154.44;5127969;27;20198;-72
2022/07/07 11:41:13;;;;;;;2.05;1.95;;;;;;;33.61;39.97;99147.09;5128527;27;20665;-73